createdAt,value
2022-07-29T00:00:04.489Z,1012.01
2022-07-29T00:01:04.502Z,1011.96
2022-07-29T00:02:04.467Z,1011.95
2022-07-29T00:03:04.611Z,1011.92
2022-07-29T00:04:04.464Z,1011.92
2022-07-29T00:05:04.425Z,1011.92
2022-07-29T00:06:04.392Z,1011.91
2022-07-29T00:07:04.375Z,1011.89
2022-07-29T00:08:07.193Z,1011.85
2022-07-29T00:09:04.342Z,1011.88
2022-07-29T00:10:04.346Z,1011.86
2022-07-29T00:11:04.312Z,1011.85
2022-07-29T00:12:04.289Z,1011.83
2022-07-29T00:13:04.278Z,1011.81
2022-07-29T00:14:04.259Z,1011.80
2022-07-29T00:15:04.261Z,1011.78
2022-07-29T00:16:04.757Z,1011.79
2022-07-29T00:17:04.211Z,1011.77
2022-07-29T00:18:04.201Z,1011.74
2022-07-29T00:19:04.179Z,1011.73
2022-07-29T00:20:04.162Z,1011.68
2022-07-29T00:21:04.137Z,1011.69
2022-07-29T00:22:04.144Z,1011.67
2022-07-29T00:23:04.108Z,1011.61
2022-07-29T00:24:04.099Z,1011.60
2022-07-29T00:25:04.077Z,1011.58
2022-07-29T00:26:04.058Z,1011.56
2022-07-29T00:27:04.060Z,1011.51
2022-07-29T00:28:04.026Z,1011.52
2022-07-29T00:29:32.397Z,1011.46
2022-07-29T00:30:03.992Z,1011.47
2022-07-29T00:31:04.046Z,1011.46
2022-07-29T00:32:04.098Z,1011.43
2022-07-29T00:33:08.149Z,1011.44
2022-07-29T00:34:03.927Z,1011.42
2022-07-29T00:35:03.911Z,1011.40
2022-07-29T00:36:03.894Z,1011.39
2022-07-29T00:37:03.873Z,1011.42
2022-07-29T00:38:03.882Z,1011.39
2022-07-29T00:39:03.840Z,1011.39
2022-07-29T00:40:03.826Z,1011.35
2022-07-29T00:41:03.807Z,1011.33
2022-07-29T00:42:03.792Z,1011.36
2022-07-29T00:43:03.791Z,1011.35
2022-07-29T00:44:03.772Z,1011.35
2022-07-29T00:45:03.784Z,1011.33
2022-07-29T00:46:03.727Z,1011.31
2022-07-29T00:47:03.798Z,1011.29
2022-07-29T00:48:03.722Z,1011.28
2022-07-29T00:49:03.732Z,1011.29
2022-07-29T00:50:03.656Z,1011.25
2022-07-29T00:51:03.659Z,1011.25
2022-07-29T00:52:03.622Z,1011.20
2022-07-29T00:53:03.610Z,1011.23
2022-07-29T00:54:03.606Z,1011.22
2022-07-29T00:55:08.425Z,1011.20
2022-07-29T00:56:03.555Z,1011.17
2022-07-29T00:57:03.548Z,1011.15
2022-07-29T00:58:03.520Z,1011.16
2022-07-29T00:59:03.509Z,1011.15
2022-07-29T01:00:03.506Z,1011.17
2022-07-29T01:01:03.526Z,1011.11
2022-07-29T01:02:03.555Z,1011.09
2022-07-29T01:03:03.436Z,1011.08
2022-07-29T01:04:03.418Z,1011.04
2022-07-29T01:05:03.421Z,1011.05
2022-07-29T01:06:03.386Z,1011.04
2022-07-29T01:07:03.372Z,1011.04
2022-07-29T01:08:03.373Z,1011.07
2022-07-29T01:09:03.349Z,1011.06
2022-07-29T01:10:03.327Z,1011.06
2022-07-29T01:11:03.311Z,1011.11
2022-07-29T01:12:03.283Z,1011.10
2022-07-29T01:13:03.277Z,1011.13
2022-07-29T01:14:03.273Z,1011.14
2022-07-29T01:15:03.233Z,1011.15
2022-07-29T01:16:03.258Z,1011.17
2022-07-29T01:17:03.204Z,1011.17
2022-07-29T01:18:03.272Z,1011.17
2022-07-29T01:19:03.167Z,1011.13
2022-07-29T01:20:03.170Z,1011.11
2022-07-29T01:21:03.130Z,1011.11
2022-07-29T01:22:03.158Z,1011.13
2022-07-29T01:23:03.100Z,1011.15
2022-07-29T01:24:03.084Z,1011.16
2022-07-29T01:25:03.064Z,1011.17
2022-07-29T01:26:03.047Z,1011.17
2022-07-29T01:27:03.037Z,1011.18
2022-07-29T01:28:03.043Z,1011.17
2022-07-29T01:29:06.122Z,1011.15
2022-07-29T01:30:05.220Z,1011.11
2022-07-29T01:31:03.069Z,1011.14
2022-07-29T01:32:03.041Z,1011.12
2022-07-29T01:33:02.961Z,1011.09
2022-07-29T01:34:02.913Z,1011.09
2022-07-29T01:35:02.910Z,1011.12
2022-07-29T01:36:02.886Z,1011.12
2022-07-29T01:37:02.861Z,1011.09
2022-07-29T01:38:02.852Z,1011.09
2022-07-29T01:39:02.850Z,1011.09
2022-07-29T01:40:02.815Z,1011.04
2022-07-29T01:41:02.813Z,1011.05
2022-07-29T01:42:02.776Z,1011.06
2022-07-29T01:43:02.758Z,1011.06
2022-07-29T01:44:02.750Z,1011.11
2022-07-29T01:45:02.732Z,1011.14
2022-07-29T01:46:02.711Z,1011.09
2022-07-29T01:47:02.778Z,1011.08
2022-07-29T01:48:02.675Z,1011.07
2022-07-29T01:49:02.772Z,1011.05
2022-07-29T01:50:02.666Z,1011.01
2022-07-29T01:51:02.638Z,1011.03
2022-07-29T01:52:02.613Z,1011.04
2022-07-29T01:53:02.593Z,1011.05
2022-07-29T01:54:02.586Z,1011.05
2022-07-29T01:55:02.582Z,1011.05
2022-07-29T01:56:02.539Z,1011.07
2022-07-29T01:57:02.532Z,1011.06
2022-07-29T01:58:02.511Z,1011.10
2022-07-29T01:59:02.524Z,1011.08
2022-07-29T02:00:02.477Z,1011.10
2022-07-29T02:01:02.478Z,1011.09
2022-07-29T02:02:02.486Z,1011.11
2022-07-29T02:03:02.427Z,1011.11
2022-07-29T02:04:02.411Z,1011.16
2022-07-29T02:05:02.444Z,1011.20
2022-07-29T02:06:02.376Z,1011.24
2022-07-29T02:07:02.374Z,1011.28
2022-07-29T02:08:02.339Z,1011.32
2022-07-29T02:09:02.322Z,1011.39
2022-07-29T02:10:02.306Z,1011.45
2022-07-29T02:11:02.314Z,1011.46
2022-07-29T02:12:02.275Z,1011.49
2022-07-29T02:13:02.255Z,1011.49
2022-07-29T02:14:02.237Z,1011.53
2022-07-29T02:15:02.223Z,1011.50
2022-07-29T02:16:02.279Z,1011.51
2022-07-29T02:17:02.191Z,1011.48
2022-07-29T02:18:02.171Z,1011.46
2022-07-29T02:19:02.157Z,1011.41
2022-07-29T02:20:02.142Z,1011.40
2022-07-29T02:21:02.114Z,1011.37
2022-07-29T02:22:02.121Z,1011.38
2022-07-29T02:23:02.090Z,1011.37
2022-07-29T02:24:02.070Z,1011.37
2022-07-29T02:25:02.081Z,1011.40
2022-07-29T02:26:02.030Z,1011.43
2022-07-29T02:27:02.017Z,1011.47
2022-07-29T02:28:02.004Z,1011.42
2022-07-29T02:29:01.982Z,1011.43
2022-07-29T02:30:01.994Z,1011.40
2022-07-29T02:31:02.021Z,1011.39
2022-07-29T02:32:01.943Z,1011.31
2022-07-29T02:33:01.915Z,1011.28
2022-07-29T02:34:01.927Z,1011.25
2022-07-29T02:35:01.899Z,1011.23
2022-07-29T02:36:01.867Z,1011.21
2022-07-29T02:37:01.846Z,1011.21
2022-07-29T02:38:01.833Z,1011.24
2022-07-29T02:39:01.862Z,1011.27
2022-07-29T02:40:01.795Z,1011.29
2022-07-29T02:41:01.772Z,1011.31
2022-07-29T02:42:01.768Z,1011.32
2022-07-29T02:43:01.766Z,1011.34
2022-07-29T02:44:01.743Z,1011.33
2022-07-29T02:45:01.731Z,1011.29
2022-07-29T02:46:01.711Z,1011.32
2022-07-29T02:47:01.733Z,1011.31
2022-07-29T02:48:01.655Z,1011.31
2022-07-29T02:49:01.772Z,1011.24
2022-07-29T02:50:01.649Z,1011.25
2022-07-29T02:51:01.614Z,1011.24
2022-07-29T02:52:01.607Z,1011.30
2022-07-29T02:53:01.595Z,1011.29
2022-07-29T02:54:01.567Z,1011.28
2022-07-29T02:55:01.535Z,1011.31
2022-07-29T02:56:01.531Z,1011.33
2022-07-29T02:57:01.503Z,1011.29
2022-07-29T02:58:01.486Z,1011.36
2022-07-29T02:59:01.497Z,1011.35
2022-07-29T03:00:01.446Z,1011.36
2022-07-29T03:01:01.437Z,1011.39
2022-07-29T03:02:01.487Z,1011.40
2022-07-29T03:03:01.398Z,1011.39
2022-07-29T03:04:01.379Z,1011.43
2022-07-29T03:05:01.405Z,1011.42
2022-07-29T03:06:01.344Z,1011.46
2022-07-29T03:07:01.354Z,1011.48
2022-07-29T03:08:01.310Z,1011.59
2022-07-29T03:09:01.296Z,1011.61
2022-07-29T03:10:01.297Z,1011.62
2022-07-29T03:11:01.266Z,1011.64
2022-07-29T03:12:01.244Z,1011.66
2022-07-29T03:13:01.230Z,1011.76
2022-07-29T03:14:01.210Z,1011.75
2022-07-29T03:15:01.210Z,1011.75
2022-07-29T03:16:01.205Z,1011.76
2022-07-29T03:17:01.162Z,1011.81
2022-07-29T03:18:01.158Z,1011.85
2022-07-29T03:19:01.118Z,1011.89
2022-07-29T03:20:01.101Z,1011.95
2022-07-29T03:21:01.087Z,1012.03
2022-07-29T03:22:01.064Z,1012.06
2022-07-29T03:23:01.050Z,1012.12
2022-07-29T03:24:01.049Z,1012.16
2022-07-29T03:25:01.018Z,1012.20
2022-07-29T03:26:00.999Z,1012.23
2022-07-29T03:27:00.981Z,1012.26
2022-07-29T03:28:00.975Z,1012.18
2022-07-29T03:29:00.944Z,1012.13
2022-07-29T03:30:00.924Z,1011.96
2022-07-29T03:31:01.015Z,1011.94
2022-07-29T03:32:00.892Z,1012.05
2022-07-29T03:33:01.014Z,1012.10
2022-07-29T03:34:01.018Z,1012.16
2022-07-29T03:35:00.841Z,1012.11
2022-07-29T03:36:00.912Z,1012.19
2022-07-29T03:37:00.822Z,1012.15
2022-07-29T03:38:00.839Z,1012.11
2022-07-29T03:39:00.808Z,1012.07
2022-07-29T03:40:00.867Z,1012.10
2022-07-29T03:41:00.743Z,1011.97
2022-07-29T03:42:00.715Z,1011.91
2022-07-29T03:43:00.721Z,1011.74
2022-07-29T03:44:00.681Z,1011.68
2022-07-29T03:45:00.667Z,1011.60
2022-07-29T03:46:00.678Z,1011.50
2022-07-29T03:47:00.629Z,1011.41
2022-07-29T03:48:01.360Z,1011.34
2022-07-29T03:49:00.663Z,1011.29
2022-07-29T03:50:00.567Z,1011.27
2022-07-29T03:51:00.547Z,1011.25
2022-07-29T03:52:00.559Z,1011.18
2022-07-29T03:53:00.511Z,1011.16
2022-07-29T03:54:00.495Z,1011.09
2022-07-29T03:55:00.470Z,1011.09
2022-07-29T03:56:00.490Z,1011.06
2022-07-29T03:57:00.476Z,1011.07
2022-07-29T03:58:00.420Z,1010.99
2022-07-29T03:59:00.397Z,1011.02
2022-07-29T04:00:00.386Z,1011.00
2022-07-29T04:01:00.385Z,1011.01
2022-07-29T04:02:00.445Z,1011.01
2022-07-29T04:03:00.414Z,1011.06
2022-07-29T04:04:00.365Z,1011.02
2022-07-29T04:05:00.294Z,1011.10
2022-07-29T04:06:00.292Z,1011.04
2022-07-29T04:07:00.271Z,1011.07
2022-07-29T04:08:00.237Z,1011.11
2022-07-29T04:09:00.219Z,1011.11
2022-07-29T04:10:00.215Z,1011.14
2022-07-29T04:11:00.201Z,1011.08
2022-07-29T04:12:03.909Z,1011.10
2022-07-29T04:13:00.143Z,1011.10
2022-07-29T04:14:00.128Z,1011.09
2022-07-29T04:15:00.136Z,1011.06
2022-07-29T04:16:00.185Z,1011.03
2022-07-29T04:17:00.082Z,1011.02
2022-07-29T04:18:00.208Z,1011.03
2022-07-29T04:19:00.086Z,1011.03
2022-07-29T04:20:00.014Z,1011.03
2022-07-29T04:21:00.017Z,1011.03
2022-07-29T04:21:59.999Z,1011.05
2022-07-29T04:22:59.978Z,1011.05
2022-07-29T04:23:59.957Z,1011.11
2022-07-29T04:25:03.706Z,1011.13
2022-07-29T04:25:59.904Z,1011.22
2022-07-29T04:26:59.884Z,1011.23
2022-07-29T04:27:59.886Z,1011.33
2022-07-29T04:28:59.845Z,1011.39
2022-07-29T04:29:59.846Z,1011.44
2022-07-29T04:30:59.855Z,1011.44
2022-07-29T04:31:59.786Z,1011.47
2022-07-29T04:32:59.773Z,1011.52
2022-07-29T04:33:59.749Z,1011.55
2022-07-29T04:34:59.761Z,1011.56
2022-07-29T04:35:59.711Z,1011.57
2022-07-29T04:36:59.699Z,1011.56
2022-07-29T04:37:59.675Z,1011.55
2022-07-29T04:38:59.676Z,1011.52
2022-07-29T04:39:59.647Z,1011.52
2022-07-29T04:40:59.619Z,1011.48
2022-07-29T04:41:59.599Z,1011.42
2022-07-29T04:42:59.613Z,1011.41
2022-07-29T04:43:59.570Z,1011.38
2022-07-29T04:44:59.544Z,1011.30
2022-07-29T04:45:59.578Z,1011.26
2022-07-29T04:46:59.512Z,1011.22
2022-07-29T04:47:59.495Z,1011.22
2022-07-29T04:48:59.531Z,1011.16
2022-07-29T04:49:59.461Z,1011.16
2022-07-29T04:50:59.454Z,1011.19
2022-07-29T04:51:59.424Z,1011.17
2022-07-29T04:52:59.402Z,1011.12
2022-07-29T04:53:59.404Z,1011.10
2022-07-29T04:54:59.411Z,1011.07
2022-07-29T04:55:59.343Z,1011.14
2022-07-29T04:56:59.324Z,1011.14
2022-07-29T04:57:59.313Z,1011.12
2022-07-29T04:58:59.302Z,1011.10
2022-07-29T04:59:59.290Z,1011.09
2022-07-29T05:00:59.267Z,1011.12
2022-07-29T05:01:59.339Z,1011.03
2022-07-29T05:02:59.363Z,1011.00
2022-07-29T05:04:00.739Z,1011.00
2022-07-29T05:04:59.178Z,1010.97
2022-07-29T05:05:59.183Z,1010.97
2022-07-29T05:06:59.137Z,1010.99
2022-07-29T05:07:59.147Z,1011.01
2022-07-29T05:08:59.099Z,1011.01
2022-07-29T05:09:59.088Z,1011.05
2022-07-29T05:10:59.061Z,1011.02
2022-07-29T05:11:59.052Z,1011.06
2022-07-29T05:12:59.052Z,1011.04
2022-07-29T05:13:59.011Z,1011.05
2022-07-29T05:14:58.986Z,1011.04
2022-07-29T05:15:58.998Z,1011.04
2022-07-29T05:17:20.547Z,1010.99
2022-07-29T05:17:58.959Z,1011.00
2022-07-29T05:18:58.917Z,1011.05
2022-07-29T05:19:58.909Z,1011.07
2022-07-29T05:20:58.884Z,1011.06
2022-07-29T05:21:58.865Z,1011.08
2022-07-29T05:22:58.874Z,1011.08
2022-07-29T05:23:58.836Z,1011.10
2022-07-29T05:24:58.816Z,1011.13
2022-07-29T05:25:58.830Z,1011.11
2022-07-29T05:26:58.826Z,1011.16
2022-07-29T05:27:58.792Z,1011.19
2022-07-29T05:28:58.748Z,1011.15
2022-07-29T05:29:58.753Z,1011.19
2022-07-29T05:30:58.752Z,1011.21
2022-07-29T05:31:58.765Z,1011.24
2022-07-29T05:32:58.743Z,1011.31
2022-07-29T05:33:58.737Z,1011.28
2022-07-29T05:34:58.711Z,1011.31
2022-07-29T05:36:00.757Z,1011.33
2022-07-29T05:36:58.657Z,1011.37
2022-07-29T05:37:58.610Z,1011.35
2022-07-29T05:38:58.628Z,1011.37
2022-07-29T05:39:59.118Z,1011.34
2022-07-29T05:40:58.629Z,1011.32
2022-07-29T05:41:58.604Z,1011.32
2022-07-29T05:42:58.524Z,1011.33
2022-07-29T05:43:58.452Z,1011.34
2022-07-29T05:44:58.504Z,1011.32
2022-07-29T05:45:58.565Z,1011.37
2022-07-29T05:46:58.528Z,1011.34
2022-07-29T05:47:58.436Z,1011.38
2022-07-29T05:48:58.561Z,1011.38
2022-07-29T05:49:58.402Z,1011.37
2022-07-29T05:50:58.410Z,1011.38
2022-07-29T05:51:58.402Z,1011.38
2022-07-29T05:52:58.395Z,1011.40
2022-07-29T05:53:58.359Z,1011.40
2022-07-29T05:54:58.353Z,1011.38
2022-07-29T05:55:58.250Z,1011.41
2022-07-29T05:56:58.275Z,1011.46
2022-07-29T05:57:58.260Z,1011.45
2022-07-29T05:58:58.232Z,1011.53
2022-07-29T05:59:58.266Z,1011.50
2022-07-29T06:00:58.280Z,1011.53
2022-07-29T06:01:58.509Z,1011.57
2022-07-29T06:02:58.223Z,1011.55
2022-07-29T06:03:58.154Z,1011.57
2022-07-29T06:04:58.289Z,1011.60
2022-07-29T06:05:58.130Z,1011.64
2022-07-29T06:06:58.092Z,1011.64
2022-07-29T06:07:58.114Z,1011.66
2022-07-29T06:08:58.062Z,1011.67
2022-07-29T06:09:58.082Z,1011.65
2022-07-29T06:10:58.018Z,1011.67
2022-07-29T06:11:58.058Z,1011.73
2022-07-29T06:12:58.001Z,1011.73
2022-07-29T06:13:57.970Z,1011.77
2022-07-29T06:14:57.994Z,1011.77
2022-07-29T06:15:57.910Z,1011.81
2022-07-29T06:16:57.893Z,1011.79
2022-07-29T06:18:00.324Z,1011.78
2022-07-29T06:18:57.879Z,1011.82
2022-07-29T06:19:57.805Z,1011.82
2022-07-29T06:20:57.845Z,1011.81
2022-07-29T06:21:57.871Z,1011.86
2022-07-29T06:22:57.766Z,1011.86
2022-07-29T06:23:57.787Z,1011.91
2022-07-29T06:24:57.756Z,1011.92
2022-07-29T06:25:57.804Z,1011.95
2022-07-29T06:26:57.728Z,1011.94
2022-07-29T06:27:57.725Z,1011.95
2022-07-29T06:28:57.740Z,1012.00
2022-07-29T06:29:57.687Z,1012.05
2022-07-29T06:30:57.753Z,1012.11
2022-07-29T06:31:57.634Z,1012.16
2022-07-29T06:32:57.613Z,1012.14
2022-07-29T06:33:57.602Z,1012.15
2022-07-29T06:35:24.371Z,1012.17
2022-07-29T06:35:57.633Z,1012.19
2022-07-29T06:36:57.492Z,1012.25
2022-07-29T06:37:59.584Z,1012.26
2022-07-29T06:38:57.494Z,1012.28
2022-07-29T06:39:59.576Z,1012.30
2022-07-29T06:40:57.504Z,1012.28
2022-07-29T06:41:57.454Z,1012.25
2022-07-29T06:42:57.426Z,1012.22
2022-07-29T06:43:57.409Z,1012.19
2022-07-29T06:44:57.385Z,1012.21
2022-07-29T06:45:57.465Z,1012.18
2022-07-29T06:46:57.394Z,1012.22
2022-07-29T06:47:57.291Z,1012.18
2022-07-29T06:48:57.447Z,1012.18
2022-07-29T06:49:57.354Z,1012.19
2022-07-29T06:50:57.299Z,1012.21
2022-07-29T06:51:57.277Z,1012.19
2022-07-29T06:52:57.300Z,1012.23
2022-07-29T06:54:00.283Z,1012.22
2022-07-29T06:54:57.166Z,1012.20
2022-07-29T06:55:57.200Z,1012.22
2022-07-29T06:56:57.235Z,1012.23
2022-07-29T06:57:57.118Z,1012.23
2022-07-29T06:58:57.132Z,1012.19
2022-07-29T06:59:57.129Z,1012.17
2022-07-29T07:00:57.166Z,1012.16
2022-07-29T07:01:57.115Z,1012.19
2022-07-29T07:02:57.085Z,1012.20
2022-07-29T07:03:57.004Z,1012.21
2022-07-29T07:04:56.989Z,1012.19
2022-07-29T07:05:56.985Z,1012.20
2022-07-29T07:06:57.005Z,1012.23
2022-07-29T07:07:57.593Z,1012.21
2022-07-29T07:08:56.938Z,1012.20
2022-07-29T07:09:56.902Z,1012.21
2022-07-29T07:10:56.929Z,1012.23
2022-07-29T07:11:56.869Z,1012.21
2022-07-29T07:12:56.846Z,1012.24
2022-07-29T07:14:02.228Z,1012.23
2022-07-29T07:14:56.800Z,1012.23
2022-07-29T07:15:56.807Z,1012.24
2022-07-29T07:16:56.805Z,1012.23
2022-07-29T07:17:56.754Z,1012.22
2022-07-29T07:18:56.735Z,1012.25
2022-07-29T07:19:56.717Z,1012.22
2022-07-29T07:20:56.721Z,1012.20
2022-07-29T07:21:56.689Z,1012.22
2022-07-29T07:22:56.661Z,1012.24
2022-07-29T07:23:56.643Z,1012.26
2022-07-29T07:24:56.626Z,1012.27
2022-07-29T07:25:56.609Z,1012.22
2022-07-29T07:26:56.620Z,1012.22
2022-07-29T07:27:56.565Z,1012.13
2022-07-29T07:28:56.552Z,1012.15
2022-07-29T07:29:56.527Z,1012.09
2022-07-29T07:30:56.524Z,1012.09
2022-07-29T07:32:00.973Z,1012.06
2022-07-29T07:32:56.503Z,1012.06
2022-07-29T07:33:56.463Z,1012.03
2022-07-29T07:34:56.443Z,1012.06
2022-07-29T07:35:56.422Z,1012.06
2022-07-29T07:36:56.423Z,1012.10
2022-07-29T07:37:56.406Z,1012.11
2022-07-29T07:38:56.378Z,1012.18
2022-07-29T07:39:56.355Z,1012.17
2022-07-29T07:40:56.357Z,1012.16
2022-07-29T07:41:56.319Z,1012.19
2022-07-29T07:42:56.322Z,1012.25
2022-07-29T07:43:56.279Z,1012.26
2022-07-29T07:45:12.572Z,1012.24
2022-07-29T07:45:56.305Z,1012.22
2022-07-29T07:46:56.227Z,1012.22
2022-07-29T07:47:56.208Z,1012.22
2022-07-29T07:48:56.276Z,1012.21
2022-07-29T07:49:56.181Z,1012.16
2022-07-29T07:50:56.154Z,1012.16
2022-07-29T07:51:56.154Z,1012.11
2022-07-29T07:52:56.141Z,1012.10
2022-07-29T07:53:56.127Z,1012.09
2022-07-29T07:54:56.104Z,1012.05
2022-07-29T07:56:12.665Z,1012.03
2022-07-29T07:56:56.049Z,1012.01
2022-07-29T07:57:56.036Z,1012.04
2022-07-29T07:58:56.035Z,1012.00
2022-07-29T07:59:56.005Z,1012.02
2022-07-29T08:00:56.071Z,1012.00
2022-07-29T08:01:56.777Z,1012.01
2022-07-29T08:02:56.011Z,1012.02
2022-07-29T08:03:55.941Z,1012.02
2022-07-29T08:04:55.910Z,1011.99
2022-07-29T08:05:55.890Z,1012.02
2022-07-29T08:06:55.890Z,1012.04
2022-07-29T08:07:55.852Z,1012.01
2022-07-29T08:08:56.435Z,1011.97
2022-07-29T08:09:55.830Z,1011.99
2022-07-29T08:10:55.807Z,1011.96
2022-07-29T08:11:55.831Z,1011.93
2022-07-29T08:12:55.768Z,1011.96
2022-07-29T08:13:55.748Z,1011.92
2022-07-29T08:14:55.733Z,1011.95
2022-07-29T08:15:55.736Z,1011.93
2022-07-29T08:16:55.765Z,1011.97
2022-07-29T08:17:55.685Z,1011.95
2022-07-29T08:18:55.658Z,1011.98
2022-07-29T08:19:55.643Z,1011.98
2022-07-29T08:20:55.624Z,1012.01
2022-07-29T08:21:55.929Z,1012.01
2022-07-29T08:22:55.597Z,1012.02
2022-07-29T08:24:00.775Z,1012.03
2022-07-29T08:24:55.620Z,1012.08
2022-07-29T08:25:55.542Z,1012.05
2022-07-29T08:26:55.515Z,1012.11
2022-07-29T08:27:55.511Z,1012.08
2022-07-29T08:28:55.511Z,1012.11
2022-07-29T08:29:55.473Z,1012.14
2022-07-29T08:30:55.445Z,1012.18
2022-07-29T08:31:55.799Z,1012.18
2022-07-29T08:32:56.125Z,1012.15
2022-07-29T08:33:55.438Z,1012.19
2022-07-29T08:34:55.383Z,1012.19
2022-07-29T08:35:55.365Z,1012.29
2022-07-29T08:36:55.349Z,1012.30
2022-07-29T08:37:55.328Z,1012.35
2022-07-29T08:38:55.303Z,1012.41
2022-07-29T08:39:55.307Z,1012.38
2022-07-29T08:40:55.272Z,1012.41
2022-07-29T08:41:56.982Z,1012.45
2022-07-29T08:42:55.240Z,1012.44
2022-07-29T08:43:55.219Z,1012.40
2022-07-29T08:44:55.216Z,1012.41
2022-07-29T08:45:55.200Z,1012.37
2022-07-29T08:46:55.173Z,1012.32
2022-07-29T08:47:55.148Z,1012.30
2022-07-29T08:48:55.187Z,1012.25
2022-07-29T08:49:55.144Z,1012.24
2022-07-29T08:50:55.108Z,1012.20
2022-07-29T08:51:55.481Z,1012.20
2022-07-29T08:52:59.626Z,1012.22
2022-07-29T08:53:55.032Z,1012.16
2022-07-29T08:54:55.029Z,1012.14
2022-07-29T08:55:55.036Z,1012.11
2022-07-29T08:56:54.998Z,1012.12
2022-07-29T08:57:57.490Z,1012.15
2022-07-29T08:58:54.969Z,1012.17
2022-07-29T08:59:54.929Z,1012.20
2022-07-29T09:00:55.521Z,1012.28
2022-07-29T09:01:55.157Z,1012.26
2022-07-29T09:02:54.885Z,1012.30
2022-07-29T09:03:54.880Z,1012.32
2022-07-29T09:04:54.856Z,1012.35
2022-07-29T09:05:54.837Z,1012.41
2022-07-29T09:06:54.827Z,1012.38
2022-07-29T09:07:54.801Z,1012.36
2022-07-29T09:08:54.784Z,1012.37
2022-07-29T09:09:55.728Z,1012.38
2022-07-29T09:10:54.741Z,1012.38
2022-07-29T09:11:55.029Z,1012.39
2022-07-29T09:12:54.708Z,1012.37
2022-07-29T09:13:54.683Z,1012.35
2022-07-29T09:14:54.673Z,1012.35
2022-07-29T09:15:54.731Z,1012.30
2022-07-29T09:16:54.724Z,1012.29
2022-07-29T09:17:54.645Z,1012.33
2022-07-29T09:18:54.601Z,1012.32
2022-07-29T09:19:54.589Z,1012.31
2022-07-29T09:20:54.563Z,1012.33
2022-07-29T09:21:54.602Z,1012.38
2022-07-29T09:22:54.537Z,1012.35
2022-07-29T09:23:54.522Z,1012.38
2022-07-29T09:24:54.494Z,1012.41
2022-07-29T09:25:54.482Z,1012.45
2022-07-29T09:26:54.773Z,1012.45
2022-07-29T09:27:54.481Z,1012.48
2022-07-29T09:28:54.435Z,1012.48
2022-07-29T09:29:54.417Z,1012.50
2022-07-29T09:30:54.394Z,1012.48
2022-07-29T09:31:54.471Z,1012.46
2022-07-29T09:32:54.381Z,1012.48
2022-07-29T09:33:54.350Z,1012.49
2022-07-29T09:34:58.380Z,1012.50
2022-07-29T09:35:56.940Z,1012.50
2022-07-29T09:36:54.531Z,1012.55
2022-07-29T09:37:54.283Z,1012.56
2022-07-29T09:38:54.260Z,1012.52
2022-07-29T09:39:54.287Z,1012.58
2022-07-29T09:40:54.256Z,1012.57
2022-07-29T09:41:54.217Z,1012.61
2022-07-29T09:42:54.218Z,1012.56
2022-07-29T09:43:54.185Z,1012.61
2022-07-29T09:44:54.171Z,1012.61
2022-07-29T09:45:54.165Z,1012.62
2022-07-29T09:46:54.447Z,1012.65
2022-07-29T09:47:54.118Z,1012.67
2022-07-29T09:48:54.142Z,1012.65
2022-07-29T09:49:54.091Z,1012.64
2022-07-29T09:50:54.091Z,1012.64
2022-07-29T09:51:54.057Z,1012.65
2022-07-29T09:52:54.042Z,1012.67
2022-07-29T09:53:54.037Z,1012.66
2022-07-29T09:54:54.003Z,1012.70
2022-07-29T09:55:54.011Z,1012.67
2022-07-29T09:56:54.275Z,1012.71
2022-07-29T09:57:53.967Z,1012.76
2022-07-29T09:58:53.970Z,1012.81
2022-07-29T09:59:53.928Z,1012.83
2022-07-29T10:00:54.007Z,1012.78
2022-07-29T10:01:54.276Z,1012.78
2022-07-29T10:02:53.922Z,1012.82
2022-07-29T10:03:53.886Z,1012.85
2022-07-29T10:04:53.882Z,1012.87
2022-07-29T10:05:53.843Z,1012.84
2022-07-29T10:06:53.838Z,1012.86
2022-07-29T10:07:56.994Z,1012.85
2022-07-29T10:08:53.810Z,1012.83
2022-07-29T10:09:53.806Z,1012.85
2022-07-29T10:10:53.796Z,1012.85
2022-07-29T10:11:53.786Z,1012.85
2022-07-29T10:12:53.777Z,1012.77
2022-07-29T10:13:53.754Z,1012.73
2022-07-29T10:14:53.730Z,1012.80
2022-07-29T10:15:53.780Z,1012.80
2022-07-29T10:16:53.737Z,1012.74
2022-07-29T10:17:53.705Z,1012.78
2022-07-29T10:18:53.689Z,1012.73
2022-07-29T10:19:53.686Z,1012.69
2022-07-29T10:20:53.674Z,1012.71
2022-07-29T10:21:57.920Z,1012.74
2022-07-29T10:22:54.233Z,1012.74
2022-07-29T10:23:53.628Z,1012.74
2022-07-29T10:24:53.619Z,1012.70
2022-07-29T10:25:53.611Z,1012.71
2022-07-29T10:26:53.599Z,1012.72
2022-07-29T10:27:53.584Z,1012.81
2022-07-29T10:28:53.583Z,1012.82
2022-07-29T10:29:53.560Z,1012.86
2022-07-29T10:30:53.544Z,1012.87
2022-07-29T10:31:53.707Z,1012.90
2022-07-29T10:32:54.339Z,1012.84
2022-07-29T10:33:53.544Z,1012.85
2022-07-29T10:34:53.500Z,1012.86
2022-07-29T10:35:53.485Z,1012.85
2022-07-29T10:36:53.475Z,1012.74
2022-07-29T10:37:53.461Z,1012.78
2022-07-29T10:38:53.505Z,1012.77
2022-07-29T10:39:53.445Z,1012.77
2022-07-29T10:40:53.429Z,1012.75
2022-07-29T10:41:53.615Z,1012.73
2022-07-29T10:42:53.401Z,1012.73
2022-07-29T10:43:53.414Z,1012.75
2022-07-29T10:44:53.394Z,1012.76
2022-07-29T10:45:53.367Z,1012.78
2022-07-29T10:46:53.516Z,1012.75
2022-07-29T10:47:53.341Z,1012.75
2022-07-29T10:48:53.376Z,1012.75
2022-07-29T10:49:53.339Z,1012.75
2022-07-29T10:50:53.305Z,1012.72
2022-07-29T10:51:53.635Z,1012.75
2022-07-29T10:52:53.281Z,1012.77
2022-07-29T10:53:53.367Z,1012.73
2022-07-29T10:54:53.273Z,1012.73
2022-07-29T10:55:53.655Z,1012.75
2022-07-29T10:56:53.231Z,1012.76
2022-07-29T10:57:54.871Z,1012.79
2022-07-29T10:58:53.199Z,1012.79
2022-07-29T10:59:53.247Z,1012.80
2022-07-29T11:00:53.215Z,1012.79
2022-07-29T11:01:53.509Z,1012.76
2022-07-29T11:02:53.237Z,1012.76
2022-07-29T11:03:53.786Z,1012.77
2022-07-29T11:04:53.129Z,1012.77
2022-07-29T11:05:53.126Z,1012.74
2022-07-29T11:06:53.095Z,1012.72
2022-07-29T11:07:53.103Z,1012.70
2022-07-29T11:08:53.065Z,1012.71
2022-07-29T11:09:53.063Z,1012.74
2022-07-29T11:10:53.078Z,1012.75
2022-07-29T11:11:53.037Z,1012.72
2022-07-29T11:12:53.024Z,1012.74
2022-07-29T11:13:53.147Z,1012.74
2022-07-29T11:14:53.011Z,1012.73
2022-07-29T11:15:52.969Z,1012.75
2022-07-29T11:16:52.965Z,1012.70
2022-07-29T11:17:53.135Z,1012.73
2022-07-29T11:18:52.972Z,1012.70
2022-07-29T11:19:52.940Z,1012.70
2022-07-29T11:20:52.894Z,1012.69
2022-07-29T11:21:55.329Z,1012.73
2022-07-29T11:22:52.883Z,1012.70
2022-07-29T11:23:52.883Z,1012.74
2022-07-29T11:24:52.839Z,1012.76
2022-07-29T11:25:52.863Z,1012.78
2022-07-29T11:26:55.437Z,1012.79
2022-07-29T11:27:52.804Z,1012.78
2022-07-29T11:28:52.817Z,1012.81
2022-07-29T11:29:53.355Z,1012.80
2022-07-29T11:30:52.765Z,1012.87
2022-07-29T11:31:52.782Z,1012.79
2022-07-29T11:32:52.754Z,1012.74
2022-07-29T11:33:56.503Z,1012.72
2022-07-29T11:34:52.700Z,1012.74
2022-07-29T11:36:00.799Z,1012.74
2022-07-29T11:36:52.695Z,1012.78
2022-07-29T11:37:57.784Z,1012.73
2022-07-29T11:38:52.664Z,1012.74
2022-07-29T11:39:52.655Z,1012.72
2022-07-29T11:40:52.620Z,1012.70
2022-07-29T11:41:52.605Z,1012.70
2022-07-29T11:42:52.728Z,1012.74
2022-07-29T11:43:52.592Z,1012.74
2022-07-29T11:44:52.574Z,1012.76
2022-07-29T11:45:52.557Z,1012.78
2022-07-29T11:46:53.913Z,1012.76
2022-07-29T11:47:52.636Z,1012.77
2022-07-29T11:48:52.557Z,1012.79
2022-07-29T11:49:52.499Z,1012.81
2022-07-29T11:50:52.500Z,1012.85
2022-07-29T11:51:52.491Z,1012.81
2022-07-29T11:52:52.455Z,1012.82
2022-07-29T11:53:52.782Z,1012.82
2022-07-29T11:54:58.072Z,1012.84
2022-07-29T11:55:52.416Z,1012.83
2022-07-29T11:56:52.407Z,1012.81
2022-07-29T11:58:04.427Z,1012.82
2022-07-29T11:58:52.430Z,1012.82
2022-07-29T11:59:52.362Z,1012.88
2022-07-29T12:00:52.363Z,1012.89
2022-07-29T12:01:52.337Z,1012.89
2022-07-29T12:02:52.320Z,1012.89
2022-07-29T12:03:52.368Z,1012.89
2022-07-29T12:04:52.326Z,1012.96